Terminal Aerodrome Forecast
Issued by NWS Boston, MA

Current Version | Previous Version | Text Only | Print | Product List | Glossary On
Versions: 1 2 3 4 5 6 7 8 9 10 11 12 13 14 15 16 17 18 19 20 21 22 23 24 25 26 27 28 29 30 31 32
000
FTUS41 KBOX 222320
TAFORH
TAF
KORH 222320Z 2300/2324 27004KT P6SM OVC200
     FM230500 31004KT P6SM BKN100
     FM231500 06009KT P6SM BKN150
     FM232100 10008KT P6SM BKN090=

USA.gov is the U.S. government's official web portal to all federal, state and local government web resources and services.